createdAt,value
2018-08-16T00:03:56.166Z,71.41
2018-08-16T00:08:50.767Z,71.39
2018-08-16T00:13:45.319Z,71.57
2018-08-16T00:18:39.901Z,72.28
2018-08-16T00:23:34.511Z,71.91
2018-08-16T00:28:29.081Z,72.66
2018-08-16T00:33:23.617Z,72.75
2018-08-16T00:38:18.167Z,72.86
2018-08-16T00:43:12.743Z,73.09
2018-08-16T00:48:07.307Z,73.34
2018-08-16T00:53:01.864Z,72.61
2018-08-16T00:57:56.445Z,73.33
2018-08-16T01:02:51.018Z,73.64
2018-08-16T01:07:45.589Z,73.73
2018-08-16T01:12:40.445Z,73.53
2018-08-16T01:17:34.990Z,74.39
2018-08-16T01:22:29.533Z,74.63
2018-08-16T01:27:24.115Z,74.54
2018-08-16T01:32:18.697Z,74.67
2018-08-16T01:37:13.296Z,74.60
2018-08-16T01:42:07.920Z,75.24
2018-08-16T01:47:02.421Z,75.28
2018-08-16T01:51:57.406Z,75.16
2018-08-16T01:56:52.538Z,75.25
2018-08-16T02:01:47.237Z,75.07
2018-08-16T02:06:41.751Z,75.38
2018-08-16T02:11:36.280Z,76.19
2018-08-16T02:16:30.954Z,76.38
2018-08-16T02:21:25.520Z,76.00
2018-08-16T02:26:20.088Z,75.92
2018-08-16T02:31:14.624Z,75.71
2018-08-16T02:36:09.134Z,75.93
2018-08-16T02:41:03.701Z,76.47
2018-08-16T02:45:58.254Z,77.34
2018-08-16T02:50:52.813Z,78.15
2018-08-16T02:55:47.338Z,77.69
2018-08-16T03:00:41.885Z,77.67
2018-08-16T03:05:36.538Z,78.33
2018-08-16T03:10:31.094Z,78.39
2018-08-16T03:15:25.585Z,78.34
2018-08-16T03:20:20.066Z,78.63
2018-08-16T03:25:14.629Z,78.71
2018-08-16T03:30:09.209Z,78.62
2018-08-16T03:35:03.876Z,78.69
2018-08-16T03:39:58.490Z,78.16
2018-08-16T03:44:53.037Z,78.05
2018-08-16T03:49:47.599Z,78.79
2018-08-16T03:54:42.154Z,77.43
2018-08-16T03:59:36.724Z,77.37
2018-08-16T04:04:31.301Z,78.41
2018-08-16T04:09:25.836Z,78.41
2018-08-16T04:14:20.353Z,78.16
2018-08-16T04:19:14.938Z,78.24
2018-08-16T04:24:09.528Z,77.71
2018-08-16T04:29:04.123Z,77.29
2018-08-16T04:33:59.037Z,77.43
2018-08-16T04:38:53.653Z,77.05
2018-08-16T04:43:48.366Z,75.92
2018-08-16T04:48:42.861Z,72.47
2018-08-16T04:53:37.475Z,69.25
2018-08-16T04:58:32.406Z,65.53
2018-08-16T05:03:27.085Z,63.14
2018-08-16T05:08:21.877Z,59.70
2018-08-16T05:13:16.785Z,57.19
2018-08-16T05:18:11.529Z,55.40
2018-08-16T05:23:06.278Z,53.39
2018-08-16T05:28:00.848Z,51.68
2018-08-16T05:32:55.392Z,49.97
2018-08-16T05:37:49.884Z,48.58
2018-08-16T05:42:44.433Z,44.44
2018-08-16T05:47:39.021Z,41.72
2018-08-16T05:52:33.909Z,40.60
2018-08-16T05:57:28.568Z,40.84
2018-08-16T06:02:23.168Z,40.65
2018-08-16T06:07:17.700Z,41.21
2018-08-16T06:12:12.320Z,40.91
2018-08-16T06:17:06.905Z,42.18
2018-08-16T06:22:01.874Z,42.51
2018-08-16T06:26:56.313Z,45.44
2018-08-16T06:31:50.949Z,46.97
2018-08-16T06:36:45.581Z,45.29
2018-08-16T06:41:40.585Z,48.75
2018-08-16T06:46:35.169Z,49.29
2018-08-16T06:51:29.981Z,49.37
2018-08-16T06:56:25.216Z,50.40
2018-08-16T07:01:20.047Z,47.95
2018-08-16T07:06:17.097Z,48.17
2018-08-16T07:11:12.041Z,48.63
2018-08-16T07:16:14.210Z,50.12
2018-08-16T07:21:08.777Z,49.08
2018-08-16T07:26:03.459Z,50.84
2018-08-16T07:30:58.881Z,50.78
2018-08-16T07:35:53.370Z,50.12
2018-08-16T07:40:48.008Z,50.25
2018-08-16T07:45:42.710Z,50.28
2018-08-16T07:50:37.403Z,49.51
2018-08-16T07:55:31.863Z,49.52
2018-08-16T08:00:26.387Z,50.16
2018-08-16T08:05:21.588Z,50.60
2018-08-16T08:10:16.103Z,50.38
2018-08-16T08:15:14.002Z,49.79
2018-08-16T08:20:14.680Z,50.08
2018-08-16T08:25:09.524Z,49.71
2018-08-16T08:30:05.306Z,48.28
2018-08-16T08:34:59.948Z,47.69
2018-08-16T08:39:54.404Z,48.89
2018-08-16T08:44:48.961Z,47.68
2018-08-16T08:49:44.351Z,48.98
2018-08-16T08:54:56.825Z,47.61
2018-08-16T08:59:51.602Z,47.37
2018-08-16T09:04:47.477Z,46.84
2018-08-16T09:11:15.600Z,46.90
2018-08-16T09:16:22.892Z,46.06
2018-08-16T09:21:17.520Z,46.41
2018-08-16T09:26:17.672Z,45.82
2018-08-16T09:31:29.877Z,46.83
2018-08-16T09:36:26.894Z,47.25
2018-08-16T09:41:34.604Z,45.85
2018-08-16T09:47:05.811Z,44.46
2018-08-16T09:52:02.072Z,44.71
2018-08-16T09:57:02.195Z,44.88
2018-08-16T10:02:03.648Z,43.91
2018-08-16T10:07:01.918Z,42.60
2018-08-16T10:12:01.303Z,41.75
2018-08-16T10:16:59.537Z,40.35
2018-08-16T10:22:00.594Z,40.20
2018-08-16T10:26:59.190Z,39.30
2018-08-16T10:31:56.088Z,38.96
2018-08-16T10:36:52.374Z,38.49
2018-08-16T10:41:47.165Z,37.46
2018-08-16T10:46:41.624Z,37.62
2018-08-16T10:51:36.493Z,38.11
2018-08-16T10:56:31.080Z,38.61
2018-08-16T11:01:31.695Z,37.23
2018-08-16T11:06:26.385Z,37.22
2018-08-16T11:11:21.104Z,36.76
2018-08-16T11:16:15.547Z,35.42
2018-08-16T11:21:10.108Z,37.13
2018-08-16T11:26:04.990Z,35.64
2018-08-16T11:30:59.484Z,35.87
2018-08-16T11:35:54.212Z,36.14
2018-08-16T11:40:49.364Z,36.43
2018-08-16T11:45:44.033Z,35.36
2018-08-16T11:50:38.583Z,33.97
2018-08-16T11:55:33.049Z,34.25
2018-08-16T12:00:27.550Z,33.79
2018-08-16T12:05:22.049Z,33.72
2018-08-16T12:10:16.526Z,32.87
2018-08-16T12:15:11.011Z,31.95
2018-08-16T12:20:07.952Z,30.04
2018-08-16T12:25:02.905Z,31.61
2018-08-16T12:29:57.770Z,32.44
2018-08-16T12:34:52.242Z,31.76
2018-08-16T12:39:46.678Z,32.16
2018-08-16T12:44:44.089Z,31.10
2018-08-16T12:49:38.835Z,32.32
2018-08-16T12:54:33.294Z,33.22
2018-08-16T12:59:27.860Z,34.32
2018-08-16T13:04:22.407Z,33.50
2018-08-16T13:09:17.010Z,32.57
2018-08-16T13:14:11.781Z,33.31
2018-08-16T13:19:06.571Z,32.86
2018-08-16T13:24:01.682Z,32.57
2018-08-16T13:28:56.291Z,33.31
2018-08-16T13:33:51.104Z,32.10
2018-08-16T13:38:45.606Z,32.88
2018-08-16T13:43:40.405Z,33.21
2018-08-16T13:48:35.060Z,33.13
2018-08-16T13:53:29.933Z,32.65
2018-08-16T13:58:24.851Z,32.23
2018-08-16T14:03:19.493Z,31.61
2018-08-16T14:08:14.199Z,33.77
2018-08-16T14:13:08.991Z,32.30
2018-08-16T14:18:04.621Z,33.18
2018-08-16T14:22:59.371Z,32.47
2018-08-16T14:27:53.894Z,32.02
2018-08-16T14:32:48.433Z,32.31
2018-08-16T14:37:43.098Z,31.90
2018-08-16T14:42:37.853Z,31.83
2018-08-16T14:47:32.742Z,31.67
2018-08-16T14:52:27.276Z,32.21
2018-08-16T14:57:21.808Z,32.80
2018-08-16T15:02:16.374Z,31.63
2018-08-16T15:07:11.163Z,32.29
2018-08-16T15:12:05.785Z,31.19
2018-08-16T15:17:00.646Z,30.89
2018-08-16T15:21:55.280Z,31.57
2018-08-16T15:26:50.443Z,30.56
2018-08-16T15:31:44.977Z,30.99
2018-08-16T15:36:39.768Z,32.18
2018-08-16T15:41:34.286Z,30.51
2018-08-16T15:46:28.889Z,31.54
2018-08-16T15:51:23.632Z,30.95
2018-08-16T15:56:18.212Z,32.48
2018-08-16T16:01:12.758Z,31.36
2018-08-16T16:06:07.577Z,31.82
2018-08-16T16:11:02.054Z,31.35
2018-08-16T16:15:56.617Z,30.94
2018-08-16T16:20:51.649Z,31.70
2018-08-16T16:25:46.285Z,32.03
2018-08-16T16:30:40.858Z,32.01
2018-08-16T16:35:35.343Z,31.33
2018-08-16T16:40:29.919Z,31.33
2018-08-16T16:45:24.569Z,32.53
2018-08-16T16:50:19.129Z,31.55
2018-08-16T16:55:13.762Z,31.06
2018-08-16T17:00:09.633Z,32.46
2018-08-16T17:05:04.250Z,31.84
2018-08-16T17:09:58.943Z,31.60
2018-08-16T17:14:53.541Z,32.23
2018-08-16T17:19:48.141Z,32.32
2018-08-16T17:24:42.706Z,32.18
2018-08-16T17:29:37.253Z,33.74
2018-08-16T17:34:31.799Z,34.14
2018-08-16T17:39:26.367Z,33.75
2018-08-16T17:44:20.888Z,33.98
2018-08-16T17:49:15.458Z,34.93
2018-08-16T17:54:10.014Z,35.49
2018-08-16T17:59:04.585Z,35.69
2018-08-16T18:03:59.175Z,36.46
2018-08-16T18:08:53.693Z,36.62
2018-08-16T18:13:48.176Z,35.77
2018-08-16T18:18:42.725Z,35.65
2018-08-16T18:23:37.265Z,37.32
2018-08-16T18:28:31.789Z,39.25
2018-08-16T18:33:26.325Z,40.47
2018-08-16T18:38:20.776Z,40.35
2018-08-16T18:43:15.285Z,41.71
2018-08-16T18:48:09.965Z,41.94
2018-08-16T18:53:04.530Z,43.15
2018-08-16T18:57:59.142Z,43.51
2018-08-16T19:02:53.649Z,44.17
2018-08-16T19:07:48.277Z,45.13
2018-08-16T19:12:42.816Z,46.08
2018-08-16T19:17:37.348Z,46.28
2018-08-16T19:22:32.505Z,47.20
2018-08-16T19:27:27.013Z,46.99
2018-08-16T19:32:21.541Z,47.79
2018-08-16T19:37:16.178Z,49.59
2018-08-16T19:42:10.705Z,49.17
2018-08-16T19:47:05.242Z,50.67
2018-08-16T19:51:59.889Z,49.83
2018-08-16T19:56:54.447Z,50.49
2018-08-16T20:01:49.053Z,51.21
2018-08-16T20:06:43.584Z,51.23
2018-08-16T20:11:38.193Z,51.11
2018-08-16T20:16:32.705Z,52.14
2018-08-16T20:21:27.280Z,52.18
2018-08-16T20:26:21.830Z,51.78
2018-08-16T20:31:16.365Z,53.15
2018-08-16T20:36:10.900Z,53.69
2018-08-16T20:41:05.404Z,53.99
2018-08-16T20:46:00.105Z,54.64
2018-08-16T20:50:54.641Z,54.04
2018-08-16T20:55:49.329Z,54.56
2018-08-16T21:00:43.967Z,55.49
2018-08-16T21:05:38.500Z,56.82
2018-08-16T21:10:33.022Z,56.58
2018-08-16T21:15:27.532Z,56.55
2018-08-16T21:20:22.076Z,57.13
2018-08-16T21:25:16.581Z,57.67
2018-08-16T21:30:11.094Z,57.53
2018-08-16T21:35:05.664Z,57.49
2018-08-16T21:40:00.189Z,58.22
2018-08-16T21:44:54.673Z,59.18
2018-08-16T21:49:49.219Z,59.55
2018-08-16T21:54:43.710Z,59.58
2018-08-16T21:59:38.200Z,59.56
2018-08-16T22:04:32.717Z,60.78
2018-08-16T22:09:27.238Z,60.08
2018-08-16T22:14:21.740Z,60.97
2018-08-16T22:19:16.286Z,61.70
2018-08-16T22:24:10.776Z,61.18
2018-08-16T22:29:05.353Z,62.26
2018-08-16T22:33:59.946Z,62.18
2018-08-16T22:38:54.418Z,62.28
2018-08-16T22:43:48.944Z,63.35
2018-08-16T22:48:43.428Z,64.19
2018-08-16T22:53:37.915Z,64.81
2018-08-16T22:58:32.436Z,64.51
2018-08-16T23:03:26.910Z,65.42
2018-08-16T23:08:21.414Z,66.58
2018-08-16T23:13:15.913Z,67.44
2018-08-16T23:18:10.437Z,68.70
2018-08-16T23:23:05.032Z,68.57
2018-08-16T23:27:59.549Z,68.95
2018-08-16T23:32:54.053Z,69.02
2018-08-16T23:37:48.556Z,70.27
2018-08-16T23:42:43.269Z,70.20
2018-08-16T23:47:37.788Z,70.65
2018-08-16T23:52:32.293Z,70.79
2018-08-16T23:57:26.810Z,69.67
